createdAt,value
2022-11-19T00:01:26.332Z,23.70
2022-11-19T00:03:53.770Z,23.70
2022-11-19T00:06:23.407Z,23.70
2022-11-19T00:08:50.702Z,23.70
2022-11-19T00:11:39.010Z,23.80
2022-11-19T00:14:06.907Z,23.70
2022-11-19T00:16:33.885Z,23.70
2022-11-19T00:19:00.747Z,23.70
2022-11-19T00:21:27.598Z,23.70
2022-11-19T00:23:55.338Z,23.70
2022-11-19T00:26:22.757Z,23.70
2022-11-19T00:28:49.803Z,23.70
2022-11-19T00:31:16.821Z,23.70
2022-11-19T00:33:44.734Z,23.70
2022-11-19T00:36:13.503Z,23.70
2022-11-19T00:38:40.421Z,23.70
2022-11-19T00:41:07.335Z,23.70
2022-11-19T00:43:52.485Z,23.70
2022-11-19T00:46:23.453Z,23.60
2022-11-19T00:48:51.473Z,23.60
2022-11-19T00:51:19.795Z,23.60
2022-11-19T00:53:46.787Z,23.60
2022-11-19T00:56:16.402Z,23.60
2022-11-19T00:58:43.847Z,23.60
2022-11-19T01:01:11.815Z,23.60
2022-11-19T01:03:40.463Z,23.60
2022-11-19T01:06:09.054Z,23.60
2022-11-19T01:08:36.307Z,23.60
2022-11-19T01:11:11.707Z,23.60
2022-11-19T01:13:38.947Z,23.60
2022-11-19T01:16:14.822Z,23.50
2022-11-19T01:18:42.912Z,23.50
2022-11-19T01:21:11.197Z,23.50
2022-11-19T01:23:41.581Z,23.50
2022-11-19T01:26:09.467Z,23.50
2022-11-19T01:28:36.448Z,23.50
2022-11-19T01:31:11.128Z,23.50
2022-11-19T01:33:38.246Z,23.50
2022-11-19T01:36:07.694Z,23.50
2022-11-19T01:38:34.527Z,23.40
2022-11-19T01:41:02.327Z,23.40
2022-11-19T01:43:50.906Z,23.40
2022-11-19T01:46:20.624Z,23.50
2022-11-19T01:49:05.251Z,23.40
2022-11-19T01:51:45.787Z,23.40
2022-11-19T01:54:51.238Z,23.40
2022-11-19T01:57:18.547Z,23.40
2022-11-19T01:59:48.834Z,23.30
2022-11-19T02:02:16.320Z,23.30
2022-11-19T02:04:43.779Z,23.30
2022-11-19T02:07:12.008Z,23.30
2022-11-19T02:09:39.788Z,23.30
2022-11-19T02:12:06.543Z,23.30
2022-11-19T02:14:36.368Z,23.30
2022-11-19T02:17:19.288Z,23.30
2022-11-19T02:20:13.285Z,23.30
2022-11-19T02:23:16.786Z,23.30
2022-11-19T02:26:10.945Z,23.20
2022-11-19T02:28:46.361Z,23.20
2022-11-19T02:31:17.365Z,23.20
2022-11-19T02:33:50.373Z,23.10
2022-11-19T02:36:24.218Z,23.10
2022-11-19T02:39:19.193Z,23.10
2022-11-19T02:42:10.986Z,23.20
2022-11-19T02:45:01.658Z,23.10
2022-11-19T02:47:41.706Z,23.10
2022-11-19T02:50:40.376Z,23.10
2022-11-19T02:53:07.206Z,23.00
2022-11-19T02:55:35.622Z,23.00
2022-11-19T02:58:37.962Z,23.00
2022-11-19T03:01:26.513Z,23.00
2022-11-19T03:04:12.255Z,23.00
2022-11-19T03:06:39.605Z,23.00
2022-11-19T03:09:06.457Z,22.90
2022-11-19T03:11:33.470Z,22.90
2022-11-19T03:14:37.975Z,22.90
2022-11-19T03:17:28.601Z,23.00
2022-11-19T03:20:03.839Z,23.00
2022-11-19T03:22:42.370Z,22.90
2022-11-19T03:25:15.333Z,22.90
2022-11-19T03:27:47.703Z,22.90
2022-11-19T03:30:15.779Z,22.90
2022-11-19T03:32:54.631Z,22.90
2022-11-19T03:35:28.016Z,22.90
2022-11-19T03:37:57.776Z,22.90
2022-11-19T03:40:25.834Z,22.90
2022-11-19T03:42:54.270Z,22.90
2022-11-19T03:45:26.049Z,22.90
2022-11-19T03:47:53.571Z,22.80
2022-11-19T03:50:51.335Z,22.80
2022-11-19T03:53:18.665Z,22.80
2022-11-19T03:55:59.507Z,22.70
2022-11-19T03:58:27.285Z,22.80
2022-11-19T04:00:54.243Z,22.80
2022-11-19T04:03:21.173Z,22.70
2022-11-19T04:05:48.181Z,22.70
2022-11-19T04:08:15.011Z,22.80
2022-11-19T04:10:41.814Z,22.70
2022-11-19T04:13:08.689Z,22.70
2022-11-19T04:15:35.482Z,22.70
2022-11-19T04:18:02.509Z,22.70
2022-11-19T04:20:29.372Z,22.70
2022-11-19T04:22:56.229Z,22.70
2022-11-19T04:25:23.221Z,22.70
2022-11-19T04:27:51.620Z,22.70
2022-11-19T04:30:18.854Z,22.70
2022-11-19T04:32:46.162Z,22.70
2022-11-19T04:35:14.132Z,22.70
2022-11-19T04:37:41.079Z,22.70
2022-11-19T04:40:08.530Z,22.60
2022-11-19T04:42:35.409Z,22.60
2022-11-19T04:45:02.242Z,22.60
2022-11-19T04:47:29.088Z,22.60
2022-11-19T04:49:55.945Z,22.60
2022-11-19T04:52:22.791Z,22.60
2022-11-19T04:54:49.647Z,22.60
2022-11-19T04:57:16.464Z,22.60
2022-11-19T04:59:43.431Z,22.60
2022-11-19T05:02:10.275Z,22.60
2022-11-19T05:04:37.155Z,22.60
2022-11-19T05:07:04.711Z,22.60
2022-11-19T05:09:31.609Z,22.60
2022-11-19T05:11:58.480Z,22.60
2022-11-19T05:14:30.046Z,22.60
2022-11-19T05:16:57.433Z,22.60
2022-11-19T05:19:24.298Z,22.50
2022-11-19T05:21:51.130Z,22.50
2022-11-19T05:24:17.927Z,22.50
2022-11-19T05:26:44.770Z,22.50
2022-11-19T05:29:11.646Z,22.50
2022-11-19T05:31:38.508Z,22.50
2022-11-19T05:34:05.390Z,22.50
2022-11-19T05:36:32.262Z,22.50
2022-11-19T05:38:59.058Z,22.50
2022-11-19T05:41:25.874Z,22.50
2022-11-19T05:43:52.650Z,22.40
2022-11-19T05:46:20.065Z,22.40
2022-11-19T05:48:46.870Z,22.40
2022-11-19T05:51:17.177Z,22.40
2022-11-19T05:53:44.176Z,22.40
2022-11-19T05:56:11.147Z,22.40
2022-11-19T05:58:37.975Z,22.40
2022-11-19T06:01:05.094Z,22.40
2022-11-19T06:03:32.428Z,22.40
2022-11-19T06:05:59.389Z,22.40
2022-11-19T06:08:26.271Z,22.40
2022-11-19T06:10:53.082Z,22.40
2022-11-19T06:13:20.526Z,22.40
2022-11-19T06:15:47.372Z,22.30
2022-11-19T06:18:14.263Z,22.30
2022-11-19T06:20:41.141Z,22.30
2022-11-19T06:23:08.123Z,22.30
2022-11-19T06:25:35.008Z,22.30
2022-11-19T06:28:01.847Z,22.30
2022-11-19T06:30:28.668Z,22.30
2022-11-19T06:32:55.547Z,22.30
2022-11-19T06:35:22.394Z,22.30
2022-11-19T06:37:49.290Z,22.30
2022-11-19T06:40:16.108Z,22.30
2022-11-19T06:42:46.086Z,22.20
2022-11-19T06:45:15.363Z,22.30
2022-11-19T06:47:42.861Z,22.20
2022-11-19T06:50:10.535Z,22.20
2022-11-19T06:52:37.519Z,22.20
2022-11-19T06:55:05.039Z,22.20
2022-11-19T06:57:31.875Z,22.20
2022-11-19T06:59:58.679Z,22.20
2022-11-19T07:02:25.499Z,22.20
2022-11-19T07:04:52.434Z,22.20
2022-11-19T07:07:19.325Z,22.20
2022-11-19T07:09:46.204Z,22.20
2022-11-19T07:12:13.121Z,22.20
2022-11-19T07:14:39.985Z,22.20
2022-11-19T07:17:06.886Z,22.10
2022-11-19T07:19:33.811Z,22.10
2022-11-19T07:22:00.656Z,22.10
2022-11-19T07:24:27.445Z,22.10
2022-11-19T07:26:55.603Z,22.10
2022-11-19T07:29:22.840Z,22.10
2022-11-19T07:31:50.812Z,22.10
2022-11-19T07:34:18.038Z,22.10
2022-11-19T07:36:45.463Z,22.10
2022-11-19T07:39:12.648Z,22.10
2022-11-19T07:41:58.415Z,22.00
2022-11-19T07:44:25.291Z,22.00
2022-11-19T07:46:52.280Z,21.80
2022-11-19T07:49:19.918Z,21.70
2022-11-19T07:51:46.892Z,21.60
2022-11-19T07:54:14.325Z,21.50
2022-11-19T07:56:41.125Z,21.50
2022-11-19T07:59:08.012Z,21.50
2022-11-19T08:01:35.004Z,21.50
2022-11-19T08:04:02.474Z,21.50
2022-11-19T08:06:30.129Z,21.60
2022-11-19T08:08:57.233Z,21.60
2022-11-19T08:11:24.470Z,21.60
2022-11-19T08:13:51.880Z,21.60
2022-11-19T08:16:37.755Z,21.70
2022-11-19T08:19:09.983Z,21.70
2022-11-19T08:21:39.895Z,21.80
2022-11-19T08:24:07.860Z,21.90
2022-11-19T08:26:34.976Z,21.90
2022-11-19T08:29:01.958Z,22.00
2022-11-19T08:31:28.884Z,22.10
2022-11-19T08:33:55.841Z,22.10
2022-11-19T08:36:22.898Z,22.20
2022-11-19T08:38:49.695Z,22.20
2022-11-19T08:41:35.123Z,22.20
2022-11-19T08:44:02.548Z,22.20
2022-11-19T08:46:29.486Z,22.20
2022-11-19T08:48:56.300Z,22.30
2022-11-19T08:51:23.184Z,22.30
2022-11-19T08:53:54.862Z,22.30
2022-11-19T08:56:22.162Z,22.40
2022-11-19T08:58:49.124Z,22.40
2022-11-19T09:01:17.396Z,22.40
2022-11-19T09:03:44.658Z,22.50
2022-11-19T09:06:11.986Z,22.40
2022-11-19T09:08:39.537Z,22.50
2022-11-19T09:11:14.904Z,22.50
2022-11-19T09:13:42.106Z,22.50
2022-11-19T09:16:09.748Z,22.50
2022-11-19T09:18:39.177Z,22.50
2022-11-19T09:21:07.169Z,22.60
2022-11-19T09:23:34.189Z,22.60
2022-11-19T09:26:04.111Z,22.60
2022-11-19T09:28:31.747Z,22.60
2022-11-19T09:31:01.542Z,22.60
2022-11-19T09:33:30.367Z,22.60
2022-11-19T09:35:57.246Z,22.70
2022-11-19T09:38:24.153Z,22.70
2022-11-19T09:40:55.828Z,22.70
2022-11-19T09:43:29.328Z,22.70
2022-11-19T09:46:02.005Z,22.70
2022-11-19T09:48:38.920Z,22.80
2022-11-19T09:51:15.270Z,22.80
2022-11-19T09:53:48.301Z,22.80
2022-11-19T09:56:26.828Z,22.80
2022-11-19T09:58:54.066Z,22.80
2022-11-19T10:01:20.979Z,22.70
2022-11-19T10:03:50.141Z,22.80
2022-11-19T10:06:49.459Z,22.80
2022-11-19T10:09:23.361Z,22.80
2022-11-19T10:12:14.495Z,22.80
2022-11-19T10:15:00.140Z,22.90
2022-11-19T10:17:45.275Z,22.80
2022-11-19T10:20:18.254Z,22.80
2022-11-19T10:23:02.186Z,22.80
2022-11-19T10:25:32.610Z,22.80
2022-11-19T10:28:22.657Z,22.80
2022-11-19T10:30:51.828Z,22.80
2022-11-19T10:33:24.855Z,22.80
2022-11-19T10:36:06.938Z,22.70
2022-11-19T10:38:37.981Z,22.60
2022-11-19T10:41:17.456Z,22.60
2022-11-19T10:43:48.756Z,22.70
2022-11-19T10:46:18.264Z,22.70
2022-11-19T10:48:49.722Z,22.70
2022-11-19T10:51:23.518Z,22.80
2022-11-19T10:53:51.667Z,22.80
2022-11-19T10:56:24.589Z,22.80
2022-11-19T10:59:14.460Z,22.80
2022-11-19T11:01:44.575Z,22.80
2022-11-19T11:04:21.481Z,22.80
2022-11-19T11:06:52.319Z,22.90
2022-11-19T11:09:34.062Z,22.90
2022-11-19T11:12:22.294Z,22.90
2022-11-19T11:14:52.092Z,23.00
2022-11-19T11:17:25.693Z,22.90
2022-11-19T11:20:20.340Z,22.90
2022-11-19T11:22:49.821Z,23.00
2022-11-19T11:25:25.693Z,23.00
2022-11-19T11:28:18.277Z,23.00
2022-11-19T11:30:57.979Z,23.00
2022-11-19T11:33:24.894Z,23.00
2022-11-19T11:35:53.562Z,22.90
2022-11-19T11:38:23.383Z,23.00
2022-11-19T11:41:31.486Z,23.00
2022-11-19T11:44:02.256Z,23.00
2022-11-19T11:46:41.252Z,23.00
2022-11-19T11:49:28.019Z,23.00
2022-11-19T11:52:03.290Z,22.90
2022-11-19T11:54:30.220Z,23.00
2022-11-19T11:57:19.530Z,22.90
2022-11-19T11:59:46.615Z,23.00
2022-11-19T12:02:32.402Z,23.00
2022-11-19T12:05:02.657Z,23.00
2022-11-19T12:07:51.345Z,23.00
2022-11-19T12:10:26.002Z,23.10
2022-11-19T12:13:11.054Z,23.00
2022-11-19T12:15:58.420Z,23.00
2022-11-19T12:18:34.154Z,23.00
2022-11-19T12:21:11.485Z,23.00
2022-11-19T12:24:19.093Z,23.00
2022-11-19T12:27:10.513Z,23.00
2022-11-19T12:29:47.053Z,23.00
2022-11-19T12:32:53.131Z,23.00
2022-11-19T12:35:26.485Z,23.00
2022-11-19T12:38:33.407Z,23.00
2022-11-19T12:41:19.231Z,23.00
2022-11-19T12:43:56.129Z,22.90
2022-11-19T12:46:35.313Z,23.00
2022-11-19T12:49:20.327Z,23.00
2022-11-19T12:51:47.294Z,23.00
2022-11-19T12:54:35.281Z,23.00
2022-11-19T12:57:28.266Z,23.00
2022-11-19T13:00:07.911Z,23.00
2022-11-19T13:02:52.281Z,23.00
2022-11-19T13:05:41.174Z,23.00
2022-11-19T13:08:16.575Z,23.00
2022-11-19T13:10:48.910Z,23.10
2022-11-19T13:13:19.581Z,23.10
2022-11-19T13:16:11.029Z,23.10
2022-11-19T13:18:45.722Z,23.10
2022-11-19T13:21:30.948Z,23.10
2022-11-19T13:24:09.725Z,23.10
2022-11-19T13:26:36.765Z,23.10
2022-11-19T13:29:18.735Z,23.10
2022-11-19T13:31:55.590Z,23.20
2022-11-19T13:34:45.327Z,23.20
2022-11-19T13:37:55.439Z,23.20
2022-11-19T13:40:35.210Z,23.20
2022-11-19T13:43:36.725Z,23.10
2022-11-19T13:46:12.603Z,23.10
2022-11-19T13:48:43.524Z,23.10
2022-11-19T13:51:40.437Z,23.10
2022-11-19T13:54:22.057Z,23.20
2022-11-19T13:56:49.808Z,23.10
2022-11-19T13:59:40.518Z,23.10
2022-11-19T14:02:45.911Z,23.20
2022-11-19T14:05:18.595Z,23.20
2022-11-19T14:08:13.811Z,23.10
2022-11-19T14:11:14.418Z,23.20
2022-11-19T14:14:28.524Z,23.20
2022-11-19T14:17:38.516Z,23.10
2022-11-19T14:20:49.740Z,23.10
2022-11-19T14:24:01.241Z,23.10
2022-11-19T14:26:40.281Z,23.10
2022-11-19T14:29:22.670Z,23.00
2022-11-19T14:32:05.352Z,23.00
2022-11-19T14:34:33.954Z,22.90
2022-11-19T14:37:03.482Z,22.90
2022-11-19T14:39:31.871Z,23.00
2022-11-19T14:42:19.409Z,23.00
2022-11-19T14:45:07.035Z,23.10
2022-11-19T14:47:38.650Z,23.00
2022-11-19T14:50:29.099Z,23.00
2022-11-19T14:52:57.999Z,23.10
2022-11-19T14:55:33.581Z,23.00
2022-11-19T14:58:02.918Z,23.10
2022-11-19T15:00:37.856Z,23.00
2022-11-19T15:03:07.574Z,23.10
2022-11-19T15:05:41.241Z,23.10
2022-11-19T15:08:17.576Z,23.10
2022-11-19T15:11:10.150Z,23.00
2022-11-19T15:13:43.806Z,23.00
2022-11-19T15:16:26.914Z,23.00
2022-11-19T15:19:41.271Z,23.00
2022-11-19T15:22:22.307Z,23.00
2022-11-19T15:25:15.083Z,22.90
2022-11-19T15:28:02.774Z,23.00
2022-11-19T15:30:44.588Z,23.00
2022-11-19T15:33:46.572Z,22.90
2022-11-19T15:36:41.402Z,22.90
2022-11-19T15:39:14.410Z,22.90
2022-11-19T15:42:00.438Z,22.90
2022-11-19T15:44:35.308Z,22.90
2022-11-19T15:47:05.810Z,22.90
2022-11-19T15:49:34.496Z,22.90
2022-11-19T15:52:17.602Z,22.90
2022-11-19T15:54:44.902Z,22.90
2022-11-19T15:57:22.223Z,22.90
2022-11-19T16:00:01.532Z,22.90
2022-11-19T16:02:40.810Z,22.90
2022-11-19T16:05:16.454Z,22.90
2022-11-19T16:07:45.864Z,22.90
2022-11-19T16:10:18.857Z,22.80
2022-11-19T16:13:12.716Z,22.90
2022-11-19T16:16:09.008Z,22.90
2022-11-19T16:18:51.971Z,22.90
2022-11-19T16:21:28.988Z,22.90
2022-11-19T16:24:14.532Z,22.80
2022-11-19T16:26:42.682Z,22.80
2022-11-19T16:29:17.656Z,22.80
2022-11-19T16:31:45.092Z,22.80
2022-11-19T16:34:23.795Z,22.80
2022-11-19T16:36:51.317Z,22.80
2022-11-19T16:39:23.096Z,22.70
2022-11-19T16:42:15.633Z,22.80
2022-11-19T16:44:51.559Z,22.70
2022-11-19T16:47:30.681Z,22.70
2022-11-19T16:49:58.852Z,22.70
2022-11-19T16:52:38.465Z,22.60
2022-11-19T16:55:26.951Z,22.60
2022-11-19T16:57:58.254Z,22.60
2022-11-19T17:00:35.885Z,22.60
2022-11-19T17:03:20.722Z,22.60
2022-11-19T17:05:52.282Z,22.60
2022-11-19T17:08:32.483Z,22.60
2022-11-19T17:11:36.490Z,22.60
2022-11-19T17:14:13.909Z,22.60
2022-11-19T17:16:45.681Z,22.60
2022-11-19T17:19:38.661Z,22.60
2022-11-19T17:22:12.859Z,22.60
2022-11-19T17:24:42.398Z,22.50
2022-11-19T17:27:29.393Z,22.50
2022-11-19T17:30:00.541Z,22.60
2022-11-19T17:32:33.548Z,22.50
2022-11-19T17:35:00.507Z,22.50
2022-11-19T17:37:27.348Z,22.50
2022-11-19T17:39:54.248Z,22.50
2022-11-19T17:42:39.692Z,22.50
2022-11-19T17:45:10.831Z,22.50
2022-11-19T17:47:38.143Z,22.50
2022-11-19T17:50:05.400Z,22.50
2022-11-19T17:52:32.965Z,22.50
2022-11-19T17:55:20.020Z,22.50
2022-11-19T17:57:46.843Z,22.50
2022-11-19T18:00:14.490Z,22.40
2022-11-19T18:02:41.409Z,22.40
2022-11-19T18:05:17.015Z,22.40
2022-11-19T18:07:43.874Z,22.40
2022-11-19T18:10:10.975Z,22.40
2022-11-19T18:12:37.908Z,22.40
2022-11-19T18:15:05.131Z,22.40
2022-11-19T18:17:32.029Z,22.40
2022-11-19T18:19:58.896Z,22.40
2022-11-19T18:22:25.807Z,22.40
2022-11-19T18:24:52.832Z,22.40
2022-11-19T18:27:19.712Z,22.40
2022-11-19T18:29:46.634Z,22.40
2022-11-19T18:32:16.677Z,22.40
2022-11-19T18:34:44.378Z,22.40
2022-11-19T18:37:11.454Z,22.40
2022-11-19T18:39:38.655Z,22.40
2022-11-19T18:42:09.114Z,22.30
2022-11-19T18:44:36.037Z,22.30
2022-11-19T18:47:05.755Z,22.30
2022-11-19T18:49:35.919Z,22.30
2022-11-19T18:52:03.884Z,22.40
2022-11-19T18:54:30.900Z,22.30
2022-11-19T18:56:57.894Z,22.30
2022-11-19T18:59:24.723Z,22.30
2022-11-19T19:01:52.366Z,22.30
2022-11-19T19:04:19.391Z,22.30
2022-11-19T19:06:46.374Z,22.30
2022-11-19T19:09:19.468Z,22.30
2022-11-19T19:12:11.176Z,22.20
2022-11-19T19:14:39.764Z,22.20
2022-11-19T19:17:06.669Z,22.20
2022-11-19T19:19:33.549Z,22.20
2022-11-19T19:22:00.487Z,22.20
2022-11-19T19:24:27.507Z,22.20
2022-11-19T19:26:54.326Z,22.20
2022-11-19T19:29:21.616Z,22.20
2022-11-19T19:31:48.732Z,22.20
2022-11-19T19:34:15.675Z,22.20
2022-11-19T19:36:47.622Z,22.20
2022-11-19T19:39:17.077Z,22.20
2022-11-19T19:41:44.172Z,22.20
2022-11-19T19:44:11.069Z,22.30
2022-11-19T19:46:38.060Z,22.30
2022-11-19T19:49:05.003Z,22.20
2022-11-19T19:51:32.704Z,22.30
2022-11-19T19:54:00.237Z,22.30
2022-11-19T19:56:31.849Z,22.30
2022-11-19T19:58:59.555Z,22.30
2022-11-19T20:01:31.293Z,22.30
2022-11-19T20:04:16.659Z,22.30
2022-11-19T20:06:47.395Z,22.30
2022-11-19T20:09:14.708Z,22.30
2022-11-19T20:11:41.622Z,22.30
2022-11-19T20:14:09.648Z,22.30
2022-11-19T20:16:39.405Z,22.30
2022-11-19T20:19:07.610Z,22.30
2022-11-19T20:21:36.341Z,22.30
2022-11-19T20:24:08.894Z,22.30
2022-11-19T20:26:39.639Z,22.30
2022-11-19T20:29:06.991Z,22.30
2022-11-19T20:31:34.759Z,22.30
2022-11-19T20:34:03.631Z,22.30
2022-11-19T20:36:33.940Z,22.30
2022-11-19T20:39:00.932Z,22.30
2022-11-19T20:41:46.927Z,22.30
2022-11-19T20:44:21.931Z,22.30
2022-11-19T20:46:57.464Z,22.30
2022-11-19T20:49:26.911Z,22.30
2022-11-19T20:51:54.605Z,22.30
2022-11-19T20:54:21.804Z,22.30
2022-11-19T20:56:49.900Z,22.30
2022-11-19T20:59:17.067Z,22.30
2022-11-19T21:01:44.237Z,22.30
2022-11-19T21:04:11.861Z,22.20
2022-11-19T21:06:39.256Z,22.30
2022-11-19T21:09:06.556Z,22.30
2022-11-19T21:11:33.884Z,22.20
2022-11-19T21:14:00.809Z,22.20
2022-11-19T21:16:28.974Z,22.20
2022-11-19T21:18:56.078Z,22.20
2022-11-19T21:21:26.257Z,22.20
2022-11-19T21:23:53.720Z,22.20
2022-11-19T21:26:22.595Z,22.30
2022-11-19T21:28:54.783Z,22.20
2022-11-19T21:31:37.830Z,22.20
2022-11-19T21:34:06.451Z,22.20
2022-11-19T21:36:33.367Z,22.20
2022-11-19T21:39:00.213Z,22.20
2022-11-19T21:41:27.144Z,22.20
2022-11-19T21:43:54.123Z,22.20
2022-11-19T21:46:20.974Z,22.20
2022-11-19T21:48:47.841Z,22.20
2022-11-19T21:51:14.839Z,22.20
2022-11-19T21:53:41.638Z,22.20
2022-11-19T21:56:08.691Z,22.10
2022-11-19T21:58:35.520Z,22.10
2022-11-19T22:01:04.228Z,22.20
2022-11-19T22:03:32.481Z,22.20
2022-11-19T22:06:05.166Z,22.10
2022-11-19T22:08:33.475Z,22.10
2022-11-19T22:11:00.576Z,22.10
2022-11-19T22:13:27.417Z,22.10
2022-11-19T22:16:00.994Z,22.10
2022-11-19T22:18:27.932Z,22.10
2022-11-19T22:21:02.089Z,22.10
2022-11-19T22:23:29.292Z,22.10
2022-11-19T22:25:56.274Z,22.10
2022-11-19T22:28:23.236Z,22.10
2022-11-19T22:30:54.261Z,22.10
2022-11-19T22:33:21.154Z,22.10
2022-11-19T22:35:48.488Z,22.10
2022-11-19T22:38:15.858Z,22.10
2022-11-19T22:40:42.701Z,22.10
2022-11-19T22:43:09.481Z,22.10
2022-11-19T22:45:36.307Z,22.10
2022-11-19T22:48:03.265Z,22.10
2022-11-19T22:50:30.102Z,22.00
2022-11-19T22:52:56.964Z,22.10
2022-11-19T22:55:23.787Z,22.00
2022-11-19T22:57:50.618Z,22.00
2022-11-19T23:00:39.835Z,22.00
2022-11-19T23:03:06.768Z,22.00
2022-11-19T23:05:37.123Z,22.00
2022-11-19T23:08:05.987Z,22.00
2022-11-19T23:10:33.616Z,22.00
2022-11-19T23:13:19.749Z,22.00
2022-11-19T23:16:04.264Z,22.00
2022-11-19T23:18:35.811Z,22.00
2022-11-19T23:21:09.446Z,22.00
2022-11-19T23:23:36.896Z,22.00
2022-11-19T23:26:04.830Z,22.00
2022-11-19T23:28:33.579Z,22.00
2022-11-19T23:31:14.471Z,22.00
2022-11-19T23:33:41.927Z,22.00
2022-11-19T23:36:11.896Z,21.90
2022-11-19T23:38:39.577Z,21.90
2022-11-19T23:41:08.539Z,21.90
2022-11-19T23:43:36.285Z,21.90
2022-11-19T23:46:14.901Z,21.90
2022-11-19T23:48:43.771Z,22.00
2022-11-19T23:51:22.015Z,21.90
2022-11-19T23:53:49.278Z,21.90
2022-11-19T23:56:17.523Z,21.90
2022-11-19T23:58:44.865Z,21.90
